sensor_id;sensor_type;location;lat;lon;timestamp;P1;durP1;ratioP1;P2;durP2;ratioP2
62588;SDS011;58504;48.770;9.148;2023-02-07T00:00:20;1.10;;;1.10;;
62588;SDS011;58504;48.770;9.148;2023-02-07T00:02:47;1.10;;;1.10;;
62588;SDS011;58504;48.770;9.148;2023-02-07T00:05:15;1.50;;;1.40;;
62588;SDS011;58504;48.770;9.148;2023-02-07T00:07:41;1.00;;;1.00;;
62588;SDS011;58504;48.770;9.148;2023-02-07T00:10:08;1.50;;;1.40;;
62588;SDS011;58504;48.770;9.148;2023-02-07T00:12:35;2.17;;;1.42;;
62588;SDS011;58504;48.770;9.148;2023-02-07T00:15:04;1.10;;;1.10;;
62588;SDS011;58504;48.770;9.148;2023-02-07T00:17:32;1.33;;;1.30;;
62588;SDS011;58504;48.770;9.148;2023-02-07T00:19:58;1.27;;;1.27;;
62588;SDS011;58504;48.770;9.148;2023-02-07T00:22:25;1.30;;;0.90;;
62588;SDS011;58504;48.770;9.148;2023-02-07T00:24:52;1.02;;;1.02;;
62588;SDS011;58504;48.770;9.148;2023-02-07T00:27:19;1.50;;;1.40;;
62588;SDS011;58504;48.770;9.148;2023-02-07T00:29:46;0.95;;;0.95;;
62588;SDS011;58504;48.770;9.148;2023-02-07T00:32:14;0.70;;;0.70;;
62588;SDS011;58504;48.770;9.148;2023-02-07T00:34:41;1.10;;;1.00;;
62588;SDS011;58504;48.770;9.148;2023-02-07T00:37:11;1.02;;;1.02;;
62588;SDS011;58504;48.770;9.148;2023-02-07T00:39:38;2.05;;;1.00;;
62588;SDS011;58504;48.770;9.148;2023-02-07T00:42:04;1.10;;;1.10;;
62588;SDS011;58504;48.770;9.148;2023-02-07T00:44:31;1.10;;;1.10;;
62588;SDS011;58504;48.770;9.148;2023-02-07T00:46:58;1.10;;;1.10;;
62588;SDS011;58504;48.770;9.148;2023-02-07T00:49:26;1.23;;;1.17;;
62588;SDS011;58504;48.770;9.148;2023-02-07T00:51:53;1.08;;;1.08;;
62588;SDS011;58504;48.770;9.148;2023-02-07T00:54:20;1.33;;;1.10;;
62588;SDS011;58504;48.770;9.148;2023-02-07T00:56:47;1.08;;;1.08;;
62588;SDS011;58504;48.770;9.148;2023-02-07T00:59:13;0.75;;;0.75;;
62588;SDS011;58504;48.770;9.148;2023-02-07T01:01:40;1.20;;;1.10;;
62588;SDS011;58504;48.770;9.148;2023-02-07T01:04:07;1.38;;;1.20;;
62588;SDS011;58504;48.770;9.148;2023-02-07T01:06:35;0.88;;;0.88;;
62588;SDS011;58504;48.770;9.148;2023-02-07T01:09:02;0.90;;;0.90;;
62588;SDS011;58504;48.770;9.148;2023-02-07T01:11:31;1.58;;;1.17;;
62588;SDS011;58504;48.770;9.148;2023-02-07T01:13:58;1.15;;;1.15;;
62588;SDS011;58504;48.770;9.148;2023-02-07T01:16:26;0.90;;;0.90;;
62588;SDS011;58504;48.770;9.148;2023-02-07T01:18:54;1.27;;;1.20;;
62588;SDS011;58504;48.770;9.148;2023-02-07T01:21:22;1.05;;;1.05;;
62588;SDS011;58504;48.770;9.148;2023-02-07T01:23:51;1.08;;;1.08;;
62588;SDS011;58504;48.770;9.148;2023-02-07T01:26:20;0.93;;;0.93;;
62588;SDS011;58504;48.770;9.148;2023-02-07T01:28:48;1.45;;;1.35;;
62588;SDS011;58504;48.770;9.148;2023-02-07T01:31:15;1.20;;;1.10;;
62588;SDS011;58504;48.770;9.148;2023-02-07T01:33:41;1.40;;;1.30;;
62588;SDS011;58504;48.770;9.148;2023-02-07T01:36:09;1.17;;;1.17;;
62588;SDS011;58504;48.770;9.148;2023-02-07T01:38:38;1.00;;;1.00;;
62588;SDS011;58504;48.770;9.148;2023-02-07T01:41:07;0.90;;;0.90;;
62588;SDS011;58504;48.770;9.148;2023-02-07T01:43:34;1.00;;;1.00;;
62588;SDS011;58504;48.770;9.148;2023-02-07T01:46:17;1.40;;;1.30;;
62588;SDS011;58504;48.770;9.148;2023-02-07T01:48:44;1.05;;;0.95;;
62588;SDS011;58504;48.770;9.148;2023-02-07T01:51:11;1.10;;;1.05;;
62588;SDS011;58504;48.770;9.148;2023-02-07T01:53:38;1.17;;;1.08;;
62588;SDS011;58504;48.770;9.148;2023-02-07T01:56:07;0.73;;;0.73;;
62588;SDS011;58504;48.770;9.148;2023-02-07T01:58:36;1.00;;;1.00;;
62588;SDS011;58504;48.770;9.148;2023-02-07T02:01:06;0.90;;;0.90;;
62588;SDS011;58504;48.770;9.148;2023-02-07T02:03:36;1.00;;;1.00;;
62588;SDS011;58504;48.770;9.148;2023-02-07T02:06:07;1.17;;;1.00;;
62588;SDS011;58504;48.770;9.148;2023-02-07T02:08:36;1.05;;;1.05;;
62588;SDS011;58504;48.770;9.148;2023-02-07T02:11:09;1.23;;;1.17;;
62588;SDS011;58504;48.770;9.148;2023-02-07T02:13:48;1.08;;;1.08;;
62588;SDS011;58504;48.770;9.148;2023-02-07T02:16:26;1.17;;;1.17;;
62588;SDS011;58504;48.770;9.148;2023-02-07T02:19:09;1.00;;;1.00;;
62588;SDS011;58504;48.770;9.148;2023-02-07T02:22:07;1.13;;;0.95;;
62588;SDS011;58504;48.770;9.148;2023-02-07T02:28:03;1.38;;;1.27;;
62588;SDS011;58504;48.770;9.148;2023-02-07T02:30:49;1.30;;;1.20;;
62588;SDS011;58504;48.770;9.148;2023-02-07T02:33:42;1.33;;;1.33;;
62588;SDS011;58504;48.770;9.148;2023-02-07T02:36:18;1.50;;;1.40;;
62588;SDS011;58504;48.770;9.148;2023-02-07T02:38:52;1.05;;;1.05;;
62588;SDS011;58504;48.770;9.148;2023-02-07T02:41:27;1.23;;;1.23;;
62588;SDS011;58504;48.770;9.148;2023-02-07T02:44:00;1.75;;;1.63;;
62588;SDS011;58504;48.770;9.148;2023-02-07T02:46:33;1.65;;;1.40;;
62588;SDS011;58504;48.770;9.148;2023-02-07T02:49:03;1.13;;;1.05;;
62588;SDS011;58504;48.770;9.148;2023-02-07T02:51:32;1.52;;;1.42;;
62588;SDS011;58504;48.770;9.148;2023-02-07T02:53:59;0.90;;;0.90;;
62588;SDS011;58504;48.770;9.148;2023-02-07T02:56:36;1.52;;;1.40;;
62588;SDS011;58504;48.770;9.148;2023-02-07T02:59:16;1.30;;;1.20;;
62588;SDS011;58504;48.770;9.148;2023-02-07T03:02:13;1.33;;;1.23;;
62588;SDS011;58504;48.770;9.148;2023-02-07T03:04:57;1.25;;;1.15;;
62588;SDS011;58504;48.770;9.148;2023-02-07T03:07:43;1.50;;;1.40;;
62588;SDS011;58504;48.770;9.148;2023-02-07T03:10:18;1.42;;;1.33;;
62588;SDS011;58504;48.770;9.148;2023-02-07T03:12:54;1.10;;;1.10;;
62588;SDS011;58504;48.770;9.148;2023-02-07T03:15:26;1.50;;;1.40;;
62588;SDS011;58504;48.770;9.148;2023-02-07T03:18:00;1.17;;;1.15;;
62588;SDS011;58504;48.770;9.148;2023-02-07T03:20:35;1.10;;;1.10;;
62588;SDS011;58504;48.770;9.148;2023-02-07T03:23:06;1.10;;;1.10;;
62588;SDS011;58504;48.770;9.148;2023-02-07T03:25:35;1.52;;;1.42;;
62588;SDS011;58504;48.770;9.148;2023-02-07T03:28:04;1.35;;;1.25;;
62588;SDS011;58504;48.770;9.148;2023-02-07T03:30:33;1.13;;;1.13;;
62588;SDS011;58504;48.770;9.148;2023-02-07T03:33:01;1.30;;;1.30;;
62588;SDS011;58504;48.770;9.148;2023-02-07T03:35:38;1.02;;;0.93;;
62588;SDS011;58504;48.770;9.148;2023-02-07T03:38:10;1.20;;;1.10;;
62588;SDS011;58504;48.770;9.148;2023-02-07T03:40:38;1.50;;;1.40;;
62588;SDS011;58504;48.770;9.148;2023-02-07T03:43:09;1.25;;;1.15;;
62588;SDS011;58504;48.770;9.148;2023-02-07T03:45:40;1.50;;;1.40;;
62588;SDS011;58504;48.770;9.148;2023-02-07T03:48:07;1.70;;;1.60;;
62588;SDS011;58504;48.770;9.148;2023-02-07T03:50:34;1.42;;;1.33;;
62588;SDS011;58504;48.770;9.148;2023-02-07T03:53:02;1.33;;;1.23;;
62588;SDS011;58504;48.770;9.148;2023-02-07T03:55:29;0.90;;;0.90;;
62588;SDS011;58504;48.770;9.148;2023-02-07T03:57:56;1.15;;;1.08;;
62588;SDS011;58504;48.770;9.148;2023-02-07T04:00:23;1.15;;;1.10;;
62588;SDS011;58504;48.770;9.148;2023-02-07T04:02:50;1.23;;;1.23;;
62588;SDS011;58504;48.770;9.148;2023-02-07T04:05:17;1.65;;;1.55;;
62588;SDS011;58504;48.770;9.148;2023-02-07T04:07:44;1.15;;;1.10;;
62588;SDS011;58504;48.770;9.148;2023-02-07T04:10:12;1.40;;;1.30;;
62588;SDS011;58504;48.770;9.148;2023-02-07T04:12:39;0.95;;;0.95;;
62588;SDS011;58504;48.770;9.148;2023-02-07T04:15:06;1.00;;;1.00;;
62588;SDS011;58504;48.770;9.148;2023-02-07T04:17:34;1.50;;;1.40;;
62588;SDS011;58504;48.770;9.148;2023-02-07T04:20:01;1.70;;;1.60;;
62588;SDS011;58504;48.770;9.148;2023-02-07T04:22:28;1.38;;;1.35;;
62588;SDS011;58504;48.770;9.148;2023-02-07T04:24:55;1.33;;;1.30;;
62588;SDS011;58504;48.770;9.148;2023-02-07T04:27:23;1.45;;;1.35;;
62588;SDS011;58504;48.770;9.148;2023-02-07T04:29:50;1.40;;;1.30;;
62588;SDS011;58504;48.770;9.148;2023-02-07T04:32:17;1.42;;;1.33;;
62588;SDS011;58504;48.770;9.148;2023-02-07T04:34:43;1.30;;;1.20;;
62588;SDS011;58504;48.770;9.148;2023-02-07T04:37:10;1.05;;;1.00;;
62588;SDS011;58504;48.770;9.148;2023-02-07T04:39:37;1.10;;;1.10;;
62588;SDS011;58504;48.770;9.148;2023-02-07T04:42:04;1.20;;;1.10;;
62588;SDS011;58504;48.770;9.148;2023-02-07T04:44:33;1.45;;;1.35;;
62588;SDS011;58504;48.770;9.148;2023-02-07T04:46:59;2.33;;;1.48;;
62588;SDS011;58504;48.770;9.148;2023-02-07T04:49:26;0.90;;;0.90;;
62588;SDS011;58504;48.770;9.148;2023-02-07T04:51:53;1.00;;;1.00;;
62588;SDS011;58504;48.770;9.148;2023-02-07T04:54:20;1.23;;;1.20;;
62588;SDS011;58504;48.770;9.148;2023-02-07T04:56:46;1.45;;;1.35;;
62588;SDS011;58504;48.770;9.148;2023-02-07T04:59:13;1.23;;;1.23;;
62588;SDS011;58504;48.770;9.148;2023-02-07T05:01:41;1.00;;;1.00;;
62588;SDS011;58504;48.770;9.148;2023-02-07T05:04:08;1.40;;;1.30;;
62588;SDS011;58504;48.770;9.148;2023-02-07T05:06:35;1.33;;;1.23;;
62588;SDS011;58504;48.770;9.148;2023-02-07T05:09:02;1.15;;;1.00;;
62588;SDS011;58504;48.770;9.148;2023-02-07T05:11:29;1.02;;;1.02;;
62588;SDS011;58504;48.770;9.148;2023-02-07T05:13:55;1.25;;;1.02;;
62588;SDS011;58504;48.770;9.148;2023-02-07T05:16:22;1.40;;;1.30;;
62588;SDS011;58504;48.770;9.148;2023-02-07T05:18:50;1.35;;;1.25;;
62588;SDS011;58504;48.770;9.148;2023-02-07T05:21:17;1.02;;;1.02;;
62588;SDS011;58504;48.770;9.148;2023-02-07T05:23:44;2.28;;;1.20;;
62588;SDS011;58504;48.770;9.148;2023-02-07T05:26:11;1.23;;;1.13;;
62588;SDS011;58504;48.770;9.148;2023-02-07T05:28:38;0.70;;;0.70;;
62588;SDS011;58504;48.770;9.148;2023-02-07T05:31:05;1.00;;;1.00;;
62588;SDS011;58504;48.770;9.148;2023-02-07T05:33:32;1.00;;;1.00;;
62588;SDS011;58504;48.770;9.148;2023-02-07T05:35:59;0.93;;;0.93;;
62588;SDS011;58504;48.770;9.148;2023-02-07T05:38:26;0.98;;;0.93;;
62588;SDS011;58504;48.770;9.148;2023-02-07T05:40:53;0.98;;;0.98;;
62588;SDS011;58504;48.770;9.148;2023-02-07T05:43:20;0.95;;;0.95;;
62588;SDS011;58504;48.770;9.148;2023-02-07T05:45:47;1.00;;;1.00;;
62588;SDS011;58504;48.770;9.148;2023-02-07T05:48:14;0.85;;;0.85;;
62588;SDS011;58504;48.770;9.148;2023-02-07T05:50:41;1.00;;;0.98;;
62588;SDS011;58504;48.770;9.148;2023-02-07T05:53:09;1.02;;;1.00;;
62588;SDS011;58504;48.770;9.148;2023-02-07T05:55:36;1.00;;;0.93;;
62588;SDS011;58504;48.770;9.148;2023-02-07T05:58:03;0.95;;;0.95;;
62588;SDS011;58504;48.770;9.148;2023-02-07T06:00:30;1.00;;;1.00;;
62588;SDS011;58504;48.770;9.148;2023-02-07T06:02:57;1.13;;;1.08;;
62588;SDS011;58504;48.770;9.148;2023-02-07T06:05:24;1.42;;;1.33;;
62588;SDS011;58504;48.770;9.148;2023-02-07T06:07:55;1.10;;;1.00;;
62588;SDS011;58504;48.770;9.148;2023-02-07T06:10:23;1.30;;;1.20;;
62588;SDS011;58504;48.770;9.148;2023-02-07T06:12:50;0.90;;;0.90;;
62588;SDS011;58504;48.770;9.148;2023-02-07T06:15:17;1.30;;;1.20;;
62588;SDS011;58504;48.770;9.148;2023-02-07T06:17:44;1.30;;;1.20;;
62588;SDS011;58504;48.770;9.148;2023-02-07T06:20:11;0.90;;;0.90;;
62588;SDS011;58504;48.770;9.148;2023-02-07T06:22:38;0.82;;;0.82;;
62588;SDS011;58504;48.770;9.148;2023-02-07T06:25:05;1.17;;;1.08;;
62588;SDS011;58504;48.770;9.148;2023-02-07T06:27:37;1.20;;;1.10;;
62588;SDS011;58504;48.770;9.148;2023-02-07T06:30:04;0.75;;;0.75;;
62588;SDS011;58504;48.770;9.148;2023-02-07T06:32:32;0.95;;;0.95;;
62588;SDS011;58504;48.770;9.148;2023-02-07T06:34:59;0.90;;;0.90;;
62588;SDS011;58504;48.770;9.148;2023-02-07T06:37:25;1.25;;;1.17;;
62588;SDS011;58504;48.770;9.148;2023-02-07T06:39:52;0.85;;;0.85;;
62588;SDS011;58504;48.770;9.148;2023-02-07T06:42:20;1.20;;;1.20;;
62588;SDS011;58504;48.770;9.148;2023-02-07T06:44:48;1.10;;;1.05;;
62588;SDS011;58504;48.770;9.148;2023-02-07T06:47:15;1.20;;;1.20;;
62588;SDS011;58504;48.770;9.148;2023-02-07T06:49:43;1.10;;;1.10;;
62588;SDS011;58504;48.770;9.148;2023-02-07T06:52:10;1.30;;;1.20;;
62588;SDS011;58504;48.770;9.148;2023-02-07T06:54:37;1.05;;;1.05;;
62588;SDS011;58504;48.770;9.148;2023-02-07T06:57:04;3.65;;;1.05;;
62588;SDS011;58504;48.770;9.148;2023-02-07T06:59:30;2.75;;;1.00;;
62588;SDS011;58504;48.770;9.148;2023-02-07T07:01:59;0.70;;;0.70;;
62588;SDS011;58504;48.770;9.148;2023-02-07T07:04:27;1.23;;;1.20;;
62588;SDS011;58504;48.770;9.148;2023-02-07T07:06:54;4.10;;;1.08;;
62588;SDS011;58504;48.770;9.148;2023-02-07T07:09:20;0.85;;;0.85;;
62588;SDS011;58504;48.770;9.148;2023-02-07T07:11:47;0.90;;;0.90;;
62588;SDS011;58504;48.770;9.148;2023-02-07T07:14:14;1.50;;;1.27;;
62588;SDS011;58504;48.770;9.148;2023-02-07T07:16:41;1.35;;;1.10;;
62588;SDS011;58504;48.770;9.148;2023-02-07T07:19:09;1.17;;;1.15;;
62588;SDS011;58504;48.770;9.148;2023-02-07T07:21:36;1.25;;;1.15;;
62588;SDS011;58504;48.770;9.148;2023-02-07T07:24:03;0.98;;;0.98;;
62588;SDS011;58504;48.770;9.148;2023-02-07T07:26:30;1.20;;;1.20;;
62588;SDS011;58504;48.770;9.148;2023-02-07T07:28:57;1.15;;;1.15;;
62588;SDS011;58504;48.770;9.148;2023-02-07T07:31:24;1.10;;;1.00;;
62588;SDS011;58504;48.770;9.148;2023-02-07T07:33:52;1.10;;;1.10;;
62588;SDS011;58504;48.770;9.148;2023-02-07T07:36:20;1.30;;;1.20;;
62588;SDS011;58504;48.770;9.148;2023-02-07T07:38:47;1.27;;;0.93;;
62588;SDS011;58504;48.770;9.148;2023-02-07T07:41:14;2.10;;;1.45;;
62588;SDS011;58504;48.770;9.148;2023-02-07T07:43:41;1.90;;;1.17;;
62588;SDS011;58504;48.770;9.148;2023-02-07T07:46:08;1.05;;;1.05;;
62588;SDS011;58504;48.770;9.148;2023-02-07T07:48:34;0.93;;;0.93;;
62588;SDS011;58504;48.770;9.148;2023-02-07T07:51:01;1.10;;;1.08;;
62588;SDS011;58504;48.770;9.148;2023-02-07T07:53:29;2.20;;;1.20;;
62588;SDS011;58504;48.770;9.148;2023-02-07T07:55:56;0.70;;;0.70;;
62588;SDS011;58504;48.770;9.148;2023-02-07T07:58:24;1.13;;;1.02;;
62588;SDS011;58504;48.770;9.148;2023-02-07T08:00:52;1.00;;;1.00;;
62588;SDS011;58504;48.770;9.148;2023-02-07T08:03:20;0.85;;;0.82;;
62588;SDS011;58504;48.770;9.148;2023-02-07T08:05:46;2.22;;;1.00;;
62588;SDS011;58504;48.770;9.148;2023-02-07T08:08:14;2.25;;;1.20;;
62588;SDS011;58504;48.770;9.148;2023-02-07T08:10:42;0.90;;;0.90;;
62588;SDS011;58504;48.770;9.148;2023-02-07T08:13:09;0.90;;;0.90;;
62588;SDS011;58504;48.770;9.148;2023-02-07T08:15:36;2.22;;;1.20;;
62588;SDS011;58504;48.770;9.148;2023-02-07T08:18:04;0.90;;;0.90;;
62588;SDS011;58504;48.770;9.148;2023-02-07T08:20:31;0.98;;;0.98;;
62588;SDS011;58504;48.770;9.148;2023-02-07T08:22:58;0.93;;;0.93;;
62588;SDS011;58504;48.770;9.148;2023-02-07T08:25:25;1.05;;;0.90;;
62588;SDS011;58504;48.770;9.148;2023-02-07T08:27:53;7.70;;;6.18;;
62588;SDS011;58504;48.770;9.148;2023-02-07T08:30:20;7.50;;;5.63;;
62588;SDS011;58504;48.770;9.148;2023-02-07T08:32:47;7.80;;;4.35;;
62588;SDS011;58504;48.770;9.148;2023-02-07T08:35:15;5.60;;;4.65;;
62588;SDS011;58504;48.770;9.148;2023-02-07T08:37:42;5.55;;;3.38;;
62588;SDS011;58504;48.770;9.148;2023-02-07T08:40:10;3.35;;;3.05;;
62588;SDS011;58504;48.770;9.148;2023-02-07T08:42:37;2.70;;;2.50;;
62588;SDS011;58504;48.770;9.148;2023-02-07T08:45:05;3.28;;;2.38;;
62588;SDS011;58504;48.770;9.148;2023-02-07T08:47:33;2.50;;;2.30;;
62588;SDS011;58504;48.770;9.148;2023-02-07T08:50:00;3.50;;;2.45;;
62588;SDS011;58504;48.770;9.148;2023-02-07T08:52:26;3.75;;;2.42;;
62588;SDS011;58504;48.770;9.148;2023-02-07T08:54:53;6.18;;;2.55;;
62588;SDS011;58504;48.770;9.148;2023-02-07T08:57:20;2.78;;;2.22;;
62588;SDS011;58504;48.770;9.148;2023-02-07T08:59:49;2.78;;;2.22;;
62588;SDS011;58504;48.770;9.148;2023-02-07T09:02:17;3.78;;;2.35;;
62588;SDS011;58504;48.770;9.148;2023-02-07T09:04:44;4.90;;;2.20;;
62588;SDS011;58504;48.770;9.148;2023-02-07T09:07:11;2.72;;;2.47;;
62588;SDS011;58504;48.770;9.148;2023-02-07T09:09:38;5.10;;;2.40;;
62588;SDS011;58504;48.770;9.148;2023-02-07T09:12:06;2.15;;;1.80;;
62588;SDS011;58504;48.770;9.148;2023-02-07T09:14:33;1.95;;;1.73;;
62588;SDS011;58504;48.770;9.148;2023-02-07T09:17:01;1.83;;;1.73;;
62588;SDS011;58504;48.770;9.148;2023-02-07T09:19:30;2.55;;;1.98;;
62588;SDS011;58504;48.770;9.148;2023-02-07T09:21:57;1.85;;;1.75;;
62588;SDS011;58504;48.770;9.148;2023-02-07T09:24:24;1.85;;;1.75;;
62588;SDS011;58504;48.770;9.148;2023-02-07T09:26:51;3.50;;;2.13;;
62588;SDS011;58504;48.770;9.148;2023-02-07T09:29:18;2.00;;;1.90;;
62588;SDS011;58504;48.770;9.148;2023-02-07T09:31:44;1.85;;;1.70;;
62588;SDS011;58504;48.770;9.148;2023-02-07T09:34:11;3.35;;;1.60;;
62588;SDS011;58504;48.770;9.148;2023-02-07T09:36:40;1.58;;;1.48;;
62588;SDS011;58504;48.770;9.148;2023-02-07T09:39:08;1.73;;;1.63;;
62588;SDS011;58504;48.770;9.148;2023-02-07T09:41:36;1.77;;;1.63;;
62588;SDS011;58504;48.770;9.148;2023-02-07T09:46:41;1.58;;;1.48;;
62588;SDS011;58504;48.770;9.148;2023-02-07T09:49:16;2.25;;;1.60;;
62588;SDS011;58504;48.770;9.148;2023-02-07T09:51:55;1.33;;;1.23;;
62588;SDS011;58504;48.770;9.148;2023-02-07T09:54:24;1.73;;;1.52;;
62588;SDS011;58504;48.770;9.148;2023-02-07T09:56:55;1.40;;;1.30;;
62588;SDS011;58504;48.770;9.148;2023-02-07T09:59:28;2.13;;;1.60;;
62588;SDS011;58504;48.770;9.148;2023-02-07T10:02:04;1.67;;;1.58;;
62588;SDS011;58504;48.770;9.148;2023-02-07T10:04:42;1.85;;;1.73;;
62588;SDS011;58504;48.770;9.148;2023-02-07T10:07:14;1.92;;;1.60;;
62588;SDS011;58504;48.770;9.148;2023-02-07T10:09:41;1.50;;;1.40;;
62588;SDS011;58504;48.770;9.148;2023-02-07T10:12:14;1.65;;;1.55;;
62588;SDS011;58504;48.770;9.148;2023-02-07T10:17:42;1.70;;;1.60;;
62588;SDS011;58504;48.770;9.148;2023-02-07T10:20:23;3.53;;;1.60;;
62588;SDS011;58504;48.770;9.148;2023-02-07T10:22:59;1.45;;;1.35;;
62588;SDS011;58504;48.770;9.148;2023-02-07T10:25:39;3.42;;;1.50;;
62588;SDS011;58504;48.770;9.148;2023-02-07T10:28:30;1.60;;;1.50;;
62588;SDS011;58504;48.770;9.148;2023-02-07T10:31:17;1.77;;;1.48;;
62588;SDS011;58504;48.770;9.148;2023-02-07T10:33:47;1.70;;;1.60;;
62588;SDS011;58504;48.770;9.148;2023-02-07T10:36:16;1.60;;;1.50;;
62588;SDS011;58504;48.770;9.148;2023-02-07T10:38:47;1.55;;;1.25;;
62588;SDS011;58504;48.770;9.148;2023-02-07T10:41:21;1.58;;;1.48;;
62588;SDS011;58504;48.770;9.148;2023-02-07T10:43:53;1.10;;;1.10;;
62588;SDS011;58504;48.770;9.148;2023-02-07T10:46:20;1.13;;;1.13;;
62588;SDS011;58504;48.770;9.148;2023-02-07T10:48:48;1.40;;;1.30;;
62588;SDS011;58504;48.770;9.148;2023-02-07T10:51:18;1.17;;;1.17;;
62588;SDS011;58504;48.770;9.148;2023-02-07T10:54:00;2.03;;;1.35;;
62588;SDS011;58504;48.770;9.148;2023-02-07T10:56:32;1.40;;;1.30;;
62588;SDS011;58504;48.770;9.148;2023-02-07T10:59:04;1.35;;;1.25;;
62588;SDS011;58504;48.770;9.148;2023-02-07T11:01:31;1.27;;;1.20;;
62588;SDS011;58504;48.770;9.148;2023-02-07T11:03:59;1.40;;;1.30;;
62588;SDS011;58504;48.770;9.148;2023-02-07T11:06:26;1.38;;;1.27;;
62588;SDS011;58504;48.770;9.148;2023-02-07T11:09:10;1.75;;;1.65;;
62588;SDS011;58504;48.770;9.148;2023-02-07T11:11:38;1.25;;;1.15;;
62588;SDS011;58504;48.770;9.148;2023-02-07T11:14:10;1.20;;;1.20;;
62588;SDS011;58504;48.770;9.148;2023-02-07T11:16:42;1.20;;;1.20;;
62588;SDS011;58504;48.770;9.148;2023-02-07T11:19:13;1.05;;;1.05;;
62588;SDS011;58504;48.770;9.148;2023-02-07T11:21:42;0.90;;;0.90;;
62588;SDS011;58504;48.770;9.148;2023-02-07T11:24:12;1.10;;;1.00;;
62588;SDS011;58504;48.770;9.148;2023-02-07T11:26:47;1.13;;;1.13;;
62588;SDS011;58504;48.770;9.148;2023-02-07T11:29:19;2.20;;;1.20;;
62588;SDS011;58504;48.770;9.148;2023-02-07T11:31:48;1.38;;;1.27;;
62588;SDS011;58504;48.770;9.148;2023-02-07T11:34:27;1.23;;;1.13;;
62588;SDS011;58504;48.770;9.148;2023-02-07T11:37:08;1.67;;;1.58;;
62588;SDS011;58504;48.770;9.148;2023-02-07T11:39:44;1.45;;;1.35;;
62588;SDS011;58504;48.770;9.148;2023-02-07T11:42:12;1.83;;;1.60;;
62588;SDS011;58504;48.770;9.148;2023-02-07T11:44:43;1.10;;;1.10;;
62588;SDS011;58504;48.770;9.148;2023-02-07T11:47:13;1.40;;;1.30;;
62588;SDS011;58504;48.770;9.148;2023-02-07T11:49:44;1.42;;;1.33;;
62588;SDS011;58504;48.770;9.148;2023-02-07T11:52:12;1.30;;;1.20;;
62588;SDS011;58504;48.770;9.148;2023-02-07T11:54:40;1.52;;;1.42;;
62588;SDS011;58504;48.770;9.148;2023-02-07T11:57:15;1.30;;;1.20;;
62588;SDS011;58504;48.770;9.148;2023-02-07T11:59:44;1.10;;;1.10;;
62588;SDS011;58504;48.770;9.148;2023-02-07T12:02:15;1.42;;;1.33;;
62588;SDS011;58504;48.770;9.148;2023-02-07T12:04:45;1.10;;;1.00;;
62588;SDS011;58504;48.770;9.148;2023-02-07T12:07:12;1.38;;;1.27;;
62588;SDS011;58504;48.770;9.148;2023-02-07T12:09:44;1.25;;;1.25;;
62588;SDS011;58504;48.770;9.148;2023-02-07T12:12:16;1.73;;;1.30;;
62588;SDS011;58504;48.770;9.148;2023-02-07T12:14:48;1.25;;;1.17;;
62588;SDS011;58504;48.770;9.148;2023-02-07T12:17:20;1.30;;;1.20;;
62588;SDS011;58504;48.770;9.148;2023-02-07T12:19:52;1.45;;;1.40;;
62588;SDS011;58504;48.770;9.148;2023-02-07T12:22:24;1.40;;;1.30;;
62588;SDS011;58504;48.770;9.148;2023-02-07T12:24:57;2.47;;;1.50;;
62588;SDS011;58504;48.770;9.148;2023-02-07T12:27:33;1.55;;;1.45;;
62588;SDS011;58504;48.770;9.148;2023-02-07T12:30:07;1.45;;;1.30;;
62588;SDS011;58504;48.770;9.148;2023-02-07T12:32:44;3.00;;;1.60;;
62588;SDS011;58504;48.770;9.148;2023-02-07T12:35:20;1.13;;;1.13;;
62588;SDS011;58504;48.770;9.148;2023-02-07T12:37:52;1.77;;;1.30;;
62588;SDS011;58504;48.770;9.148;2023-02-07T12:40:27;1.00;;;1.00;;
62588;SDS011;58504;48.770;9.148;2023-02-07T12:43:00;1.92;;;1.10;;
62588;SDS011;58504;48.770;9.148;2023-02-07T12:45:33;2.08;;;1.33;;
62588;SDS011;58504;48.770;9.148;2023-02-07T12:48:13;1.42;;;1.20;;
62588;SDS011;58504;48.770;9.148;2023-02-07T12:50:49;1.30;;;1.20;;
62588;SDS011;58504;48.770;9.148;2023-02-07T12:53:27;1.85;;;1.13;;
62588;SDS011;58504;48.770;9.148;2023-02-07T12:56:07;2.90;;;1.23;;
62588;SDS011;58504;48.770;9.148;2023-02-07T12:58:46;1.30;;;1.20;;
62588;SDS011;58504;48.770;9.148;2023-02-07T13:01:19;5.82;;;1.50;;
62588;SDS011;58504;48.770;9.148;2023-02-07T13:04:03;1.65;;;1.55;;
62588;SDS011;58504;48.770;9.148;2023-02-07T13:06:55;6.05;;;1.35;;
62588;SDS011;58504;48.770;9.148;2023-02-07T13:09:30;8.43;;;1.48;;
62588;SDS011;58504;48.770;9.148;2023-02-07T13:12:03;1.90;;;1.60;;
62588;SDS011;58504;48.770;9.148;2023-02-07T13:14:39;2.15;;;1.58;;
62588;SDS011;58504;48.770;9.148;2023-02-07T13:17:28;2.70;;;1.63;;
62588;SDS011;58504;48.770;9.148;2023-02-07T13:20:04;1.40;;;1.30;;
62588;SDS011;58504;48.770;9.148;2023-02-07T13:22:45;3.63;;;1.45;;
62588;SDS011;58504;48.770;9.148;2023-02-07T13:25:18;1.75;;;1.65;;
62588;SDS011;58504;48.770;9.148;2023-02-07T13:27:48;3.35;;;1.33;;
62588;SDS011;58504;48.770;9.148;2023-02-07T13:30:21;1.25;;;1.15;;
62588;SDS011;58504;48.770;9.148;2023-02-07T13:32:49;1.67;;;1.42;;
62588;SDS011;58504;48.770;9.148;2023-02-07T13:35:19;4.65;;;1.40;;
62588;SDS011;58504;48.770;9.148;2023-02-07T13:37:49;1.38;;;1.27;;
62588;SDS011;58504;48.770;9.148;2023-02-07T13:40:26;2.92;;;1.33;;
62588;SDS011;58504;48.770;9.148;2023-02-07T13:43:02;2.22;;;1.38;;
62588;SDS011;58504;48.770;9.148;2023-02-07T13:45:37;3.90;;;1.65;;
62588;SDS011;58504;48.770;9.148;2023-02-07T13:48:15;6.38;;;1.67;;
62588;SDS011;58504;48.770;9.148;2023-02-07T13:50:51;2.75;;;1.60;;
62588;SDS011;58504;48.770;9.148;2023-02-07T13:53:37;3.33;;;1.38;;
62588;SDS011;58504;48.770;9.148;2023-02-07T13:58:57;1.83;;;1.40;;
62588;SDS011;58504;48.770;9.148;2023-02-07T14:01:50;3.60;;;1.70;;
62588;SDS011;58504;48.770;9.148;2023-02-07T14:04:19;5.05;;;1.55;;
62588;SDS011;58504;48.770;9.148;2023-02-07T14:06:59;1.60;;;1.20;;
62588;SDS011;58504;48.770;9.148;2023-02-07T14:09:30;5.57;;;1.63;;
62588;SDS011;58504;48.770;9.148;2023-02-07T14:12:00;1.92;;;1.73;;
62588;SDS011;58504;48.770;9.148;2023-02-07T14:14:30;2.15;;;1.42;;
62588;SDS011;58504;48.770;9.148;2023-02-07T14:16:59;3.15;;;2.00;;
62588;SDS011;58504;48.770;9.148;2023-02-07T14:22:14;1.67;;;1.58;;
62588;SDS011;58504;48.770;9.148;2023-02-07T14:24:46;1.10;;;1.10;;
62588;SDS011;58504;48.770;9.148;2023-02-07T14:27:28;1.45;;;1.35;;
62588;SDS011;58504;48.770;9.148;2023-02-07T14:30:13;1.85;;;1.75;;
62588;SDS011;58504;48.770;9.148;2023-02-07T14:35:36;1.50;;;1.40;;
62588;SDS011;58504;48.770;9.148;2023-02-07T14:38:19;2.67;;;1.42;;
62588;SDS011;58504;48.770;9.148;2023-02-07T14:40:51;2.47;;;1.30;;
62588;SDS011;58504;48.770;9.148;2023-02-07T14:43:22;1.67;;;1.55;;
62588;SDS011;58504;48.770;9.148;2023-02-07T14:45:59;2.38;;;1.13;;
62588;SDS011;58504;48.770;9.148;2023-02-07T14:48:33;1.55;;;1.45;;
62588;SDS011;58504;48.770;9.148;2023-02-07T14:51:11;2.33;;;1.50;;
62588;SDS011;58504;48.770;9.148;2023-02-07T14:53:40;3.90;;;1.40;;
62588;SDS011;58504;48.770;9.148;2023-02-07T14:56:12;5.63;;;1.15;;
62588;SDS011;58504;48.770;9.148;2023-02-07T14:58:50;1.63;;;1.40;;
62588;SDS011;58504;48.770;9.148;2023-02-07T15:01:22;0.90;;;0.90;;
62588;SDS011;58504;48.770;9.148;2023-02-07T15:04:00;2.83;;;1.08;;
62588;SDS011;58504;48.770;9.148;2023-02-07T15:06:28;1.50;;;1.40;;
62588;SDS011;58504;48.770;9.148;2023-02-07T15:09:03;0.85;;;0.85;;
62588;SDS011;58504;48.770;9.148;2023-02-07T15:11:30;1.20;;;1.10;;
62588;SDS011;58504;48.770;9.148;2023-02-07T15:13:57;2.20;;;1.45;;
62588;SDS011;58504;48.770;9.148;2023-02-07T15:16:27;1.88;;;1.45;;
62588;SDS011;58504;48.770;9.148;2023-02-07T15:18:57;1.92;;;1.30;;
62588;SDS011;58504;48.770;9.148;2023-02-07T15:21:32;1.05;;;1.00;;
62588;SDS011;58504;48.770;9.148;2023-02-07T15:24:03;2.13;;;1.20;;